Time;durP1;ratioP1;P1;durP2;ratioP2;P2;SDS_P1;SDS_P2;PMS_P1;PMS_P2;Temp;Humidity;BMP_temperature;BMP_pressure;BME280_temperature;BME280_humidity;BME280_pressure;Samples;Min_cycle;Max_cycle;Signal;HPM_P1;HPM_P2
2024/02/08 00:02:16;;;;;;;;;;;;;;;4.57;100.00;99174.82;182204;1256;43143;-59
2024/02/08 00:06:31;;;;;;;13.90;7.00;;;;;;;4.55;100.00;99178.52;182225;1255;43536;-59
2024/02/08 00:10:35;;;;;;;14.10;7.50;;;;;;;4.53;100.00;99180.77;181984;1257;43374;-62
2024/02/08 00:14:41;;;;;;;14.90;9.90;;;;;;;4.53;100.00;99175.33;182240;1255;43641;-58
2024/02/08 00:18:44;;;;;;;18.40;9.60;;;;;;;4.38;100.00;99177.09;182166;1254;58252;-61
2024/02/08 00:22:49;;;;;;;13.90;9.10;;;;;;;4.29;100.00;99179.66;181943;1256;43095;-58
2024/02/08 00:26:52;;;;;;;15.50;10.00;;;;;;;4.27;100.00;99178.61;182067;1254;43701;-59
2024/02/08 00:30:56;;;;;;;16.80;9.00;;;;;;;4.24;100.00;99174.95;182165;1255;44074;-58
2024/02/08 00:35:27;;;;;;;15.50;9.70;;;;;;;4.24;100.00;99170.59;182090;1256;43043;-58
2024/02/08 00:39:31;;;;;;;12.30;6.50;;;;;;;4.24;100.00;99167.98;182159;1256;58298;-61
2024/02/08 00:43:39;;;;;;;10.80;6.40;;;;;;;4.25;100.00;99168.79;181852;1255;43071;-59
2024/02/08 00:47:42;;;;;;;13.40;7.00;;;;;;;4.27;100.00;99168.98;182042;1256;43451;-63
2024/02/08 00:51:49;;;;;;;11.50;7.00;;;;;;;4.28;100.00;99169.05;182236;1254;43005;-61
2024/02/08 00:55:52;;;;;;;15.30;7.40;;;;;;;4.31;100.00;99170.77;181886;1254;43790;-61
2024/02/08 00:59:56;;;;;;;10.90;7.70;;;;;;;4.34;100.00;99168.52;182261;1254;58774;-62
2024/02/08 01:03:59;;;;;;;10.40;5.90;;;;;;;4.34;100.00;99163.89;182021;1254;43729;-60
2024/02/08 01:08:03;;;;;;;11.70;7.50;;;;;;;4.33;100.00;99158.50;182191;1255;43888;-63
2024/02/08 01:12:07;;;;;;;11.40;7.70;;;;;;;4.34;100.00;99154.77;182234;1256;43611;-58
2024/02/08 01:16:11;;;;;;;8.20;5.10;;;;;;;4.33;100.00;99158.87;182036;1255;43397;-61
2024/02/08 01:20:21;;;;;;;8.10;3.80;;;;;;;4.33;100.00;99160.45;182285;1255;58423;-58
2024/02/08 01:24:48;;;;;;;8.20;4.50;;;;;;;4.29;100.00;99160.70;182253;1255;43702;-59
2024/02/08 01:28:54;;;;;;;7.90;5.90;;;;;;;4.31;100.00;99155.52;182160;1256;43815;-60
2024/02/08 01:33:22;;;;;;;11.50;5.50;;;;;;;4.31;100.00;99159.53;182168;1255;43116;-60
2024/02/08 01:37:25;;;;;;;12.70;6.40;;;;;;;4.35;100.00;99158.92;182159;1255;43043;-63
2024/02/08 01:41:29;;;;;;;20.70;9.00;;;;;;;4.32;100.00;99157.54;182167;1255;58508;-62
2024/02/08 01:45:37;;;;;;;18.90;7.70;;;;;;;4.22;100.00;99148.42;182222;1255;43093;-59
2024/02/08 01:49:44;;;;;;;10.20;7.50;;;;;;;4.11;100.00;99147.30;181950;1255;43074;-60
2024/02/08 01:53:49;;;;;;;16.60;7.30;;;;;;;4.05;100.00;99151.94;181962;1255;43901;-58
2024/02/08 01:57:52;;;;;;;10.80;4.70;;;;;;;4.01;100.00;99141.52;181949;1256;43070;-60
2024/02/08 02:01:57;;;;;;;11.90;6.90;;;;;;;3.97;100.00;99142.33;182191;1255;57563;-62
2024/02/08 02:06:02;;;;;;;12.90;6.00;;;;;;;3.90;100.00;99133.20;181863;1256;43070;-61
2024/02/08 02:10:17;;;;;;;12.90;5.30;;;;;;;3.85;100.00;99125.84;181882;1256;43062;-59
2024/02/08 02:14:28;;;;;;;10.50;6.00;;;;;;;3.85;100.00;99126.91;182032;1255;43627;-62
2024/02/08 02:18:33;;;;;;;10.10;5.30;;;;;;;3.85;100.00;99120.91;182040;1256;43513;-59
2024/02/08 02:22:42;;;;;;;17.40;6.00;;;;;;;3.88;100.00;99120.05;182239;1255;58034;-67
2024/02/08 02:26:50;;;;;;;6.50;4.50;;;;;;;3.94;100.00;99125.41;182040;1255;43733;-62
2024/02/08 02:30:55;;;;;;;8.50;4.60;;;;;;;3.93;100.00;99120.39;182119;1256;43723;-66
2024/02/08 02:34:58;;;;;;;4.10;3.70;;;;;;;3.87;100.00;99122.40;181974;1254;43745;-59
2024/02/08 02:39:01;;;;;;;7.70;4.00;;;;;;;3.80;100.00;99124.42;182270;1256;43065;-58
2024/02/08 02:43:09;;;;;;;15.20;5.60;;;;;;;3.74;100.00;99123.11;182181;1255;58033;-60
2024/02/08 02:47:13;;;;;;;7.40;3.40;;;;;;;3.66;100.00;99121.96;182257;1255;43856;-61
2024/02/08 02:51:17;;;;;;;6.80;3.40;;;;;;;3.56;100.00;99114.92;182169;1255;43039;-61
2024/02/08 02:55:20;;;;;;;11.30;4.70;;;;;;;3.50;100.00;99110.61;182200;1255;43819;-60
2024/02/08 02:59:26;;;;;;;10.00;5.20;;;;;;;3.44;100.00;99102.64;181992;1256;43517;-59
2024/02/08 03:03:29;;;;;;;12.60;6.00;;;;;;;3.36;100.00;99097.63;182233;1255;59319;-59
2024/02/08 03:07:33;;;;;;;11.80;7.30;;;;;;;3.37;100.00;99095.09;182248;1256;43669;-60
2024/02/08 03:11:38;;;;;;;10.70;6.90;;;;;;;3.41;100.00;99091.11;182247;1256;43172;-61
2024/02/08 03:15:43;;;;;;;20.20;7.90;;;;;;;3.46;100.00;99090.40;182102;1255;43382;-60
2024/02/08 03:20:16;;;;;;;5.80;3.90;;;;;;;3.50;100.00;99086.82;182250;1254;43040;-60
2024/02/08 03:24:24;;;;;;;16.50;6.60;;;;;;;3.47;100.00;99082.80;181986;1254;58363;-61
2024/02/08 03:28:28;;;;;;;17.20;8.60;;;;;;;3.39;100.00;99078.27;174531;1254;10138211;-59
2024/02/08 03:32:34;;;;;;;15.20;6.90;;;;;;;3.36;100.00;99080.62;181957;1255;58295;-65
2024/02/08 03:37:06;;;;;;;14.00;9.30;;;;;;;3.34;100.00;99095.61;182078;1255;43014;-61
2024/02/08 03:41:10;;;;;;;22.30;9.30;;;;;;;3.34;100.00;99092.33;182295;1255;43056;-64
2024/02/08 03:45:13;;;;;;;28.90;13.50;;;;;;;3.33;100.00;99091.80;182175;1254;43688;-60
2024/02/08 03:49:17;;;;;;;22.10;8.70;;;;;;;3.35;100.00;99087.68;182100;1255;43770;-66
2024/02/08 03:53:20;;;;;;;7.50;5.00;;;;;;;3.36;100.00;99091.14;182159;1255;57735;-63
2024/02/08 03:57:24;;;;;;;16.20;5.80;;;;;;;3.38;100.00;99089.42;182234;1255;43143;-61
2024/02/08 04:01:27;;;;;;;13.00;6.40;;;;;;;3.40;100.00;99085.40;182278;1255;43132;-62
2024/02/08 04:05:59;;;;;;;31.90;12.60;;;;;;;3.38;100.00;99088.66;182121;1255;43060;-62
2024/02/08 04:54:57;;;;;;;8.00;4.00;;;;;;;2.49;100.00;99084.83;182193;1256;43705;-61
2024/02/08 04:59:05;;;;;;;5.30;2.90;;;;;;;2.40;100.00;99083.11;182194;1255;58027;-60
2024/02/08 05:03:24;;;;;;;14.60;6.20;;;;;;;2.25;100.00;99077.98;181996;1256;43727;-60
2024/02/08 05:07:28;;;;;;;15.40;7.90;;;;;;;2.19;100.00;99075.94;182246;1256;43079;-59
2024/02/08 05:11:36;;;;;;;18.30;7.70;;;;;;;2.23;100.00;99075.34;182192;1255;43746;-58
2024/02/08 05:15:42;;;;;;;17.90;8.30;;;;;;;2.23;100.00;99072.36;182062;1256;43021;-59
2024/02/08 05:19:46;;;;;;;17.80;8.80;;;;;;;2.30;100.00;99071.15;182207;1255;58087;-59
2024/02/08 05:23:51;;;;;;;16.30;5.40;;;;;;;2.32;100.00;99078.42;182199;1256;43671;-59
2024/02/08 05:27:54;;;;;;;13.30;10.90;;;;;;;2.37;100.00;99079.46;182209;1256;43037;-58
2024/02/08 05:31:58;;;;;;;10.70;7.00;;;;;;;2.43;100.00;99078.57;182145;1257;43725;-59
2024/02/08 05:36:06;;;;;;;13.40;7.60;;;;;;;2.39;100.00;99073.04;182104;1257;43643;-58
2024/02/08 05:40:14;;;;;;;22.20;10.50;;;;;;;2.35;100.00;99074.38;182138;1256;59186;-58
2024/02/08 05:44:20;;;;;;;23.20;11.60;;;;;;;2.27;100.00;99072.75;181999;1255;43794;-59
2024/02/08 05:48:28;;;;;;;12.30;5.50;;;;;;;2.33;100.00;99076.26;182088;1256;42953;-59
2024/02/08 05:52:33;;;;;;;21.40;11.40;;;;;;;2.40;100.00;99069.11;182259;1256;43609;-57
2024/02/08 05:56:39;;;;;;;11.90;6.10;;;;;;;2.52;100.00;99068.81;182216;1256;43061;-59
2024/02/08 06:00:45;;;;;;;8.70;4.10;;;;;;;2.65;100.00;99072.30;182250;1255;59460;-59
2024/02/08 06:13:58;;;;;;;17.00;9.90;;;;;;;2.92;100.00;99080.30;182214;1256;43107;-59
2024/02/08 06:18:05;;;;;;;20.10;13.80;;;;;;;3.03;100.00;99074.68;181969;1256;46199;-58
2024/02/08 06:22:20;;;;;;;43.40;23.90;;;;;;;3.06;100.00;99072.16;182208;1256;58014;-58
2024/02/08 06:26:28;;;;;;;20.50;11.70;;;;;;;3.08;100.00;99081.16;182309;1254;43860;-59
2024/02/08 06:30:31;;;;;;;14.80;8.50;;;;;;;3.09;100.00;99083.00;182168;1254;42999;-58
2024/02/08 06:34:45;;;;;;;16.70;8.40;;;;;;;3.11;100.00;99093.05;182167;1256;43369;-61
2024/02/08 06:38:53;;;;;;;10.70;6.60;;;;;;;3.14;100.00;99081.08;182152;1256;43601;-59
2024/02/08 06:48:14;;;;;;;13.80;8.70;;;;;;;3.04;100.00;99074.44;182212;1255;43104;-59
2024/02/08 07:40:43;;;;;;;42.30;30.50;;;;;;;2.87;100.00;99033.91;182260;1256;43139;-58
2024/02/08 07:44:54;;;;;;;37.40;30.30;;;;;;;3.01;100.00;99031.66;182150;1256;42981;-59
2024/02/08 07:49:04;;;;;;;16.00;11.40;;;;;;;3.19;100.00;99022.58;182131;1255;57930;-59
2024/02/08 07:53:19;;;;;;;17.70;11.00;;;;;;;3.33;100.00;99029.48;182091;1255;43913;-58
2024/02/08 07:57:26;;;;;;;29.90;16.60;;;;;;;3.50;100.00;99029.48;182158;1255;43105;-59
2024/02/08 08:01:38;;;;;;;;;;;;;;;3.66;100.00;99025.00;182123;1256;43082;-59
2024/02/08 08:05:44;;;;;;;16.60;11.90;;;;;;;3.76;100.00;99020.19;181896;1256;43283;-59
2024/02/08 08:10:08;;;;;;;12.90;10.40;;;;;;;3.83;100.00;99010.91;181785;1256;58315;-58
2024/02/08 08:14:55;;;;;;;26.30;17.30;;;;;;;3.93;100.00;99024.60;182149;1254;43122;-59
2024/02/08 08:18:38;;;;;;;17.20;11.10;;;;;;;4.05;100.00;99028.99;182141;1255;42991;-61
2024/02/08 08:27:06;;;;;;;16.80;11.70;;;;;;;4.32;100.00;99029.73;181968;1256;43726;-59
2024/02/08 08:31:53;;;;;;;7.40;5.60;;;;;;;4.48;100.00;99027.48;182003;1256;59847;-59
2024/02/08 08:36:05;;;;;;;11.50;6.40;;;;;;;4.66;99.98;99025.98;182238;1256;43854;-60
2024/02/08 08:40:22;;;;;;;21.70;6.60;;;;;;;4.76;98.31;99015.36;182247;1254;43096;-60
2024/02/08 08:44:30;;;;;;;17.70;7.30;;;;;;;4.81;97.26;99000.91;182124;1256;43219;-59
2024/02/08 08:48:35;;;;;;;23.70;8.50;;;;;;;4.75;98.61;99001.55;182184;1256;43700;-58
2024/02/08 08:52:57;;;;;;;47.40;21.60;;;;;;;4.83;99.29;99000.73;182128;1256;58310;-61
2024/02/08 08:57:12;;;;;;;144.70;77.60;;;;;;;4.95;98.61;98997.92;182186;1257;43524;-59
2024/02/08 09:01:23;;;;;;;67.60;38.30;;;;;;;5.27;97.91;99009.94;181870;1256;43720;-59
2024/02/08 09:05:36;;;;;;;46.20;31.00;;;;;;;5.45;93.96;99024.16;182160;1258;43129;-60
2024/02/08 09:10:00;;;;;;;15.00;10.00;;;;;;;5.42;91.94;99034.98;182089;1259;43099;-59
2024/02/08 09:14:10;;;;;;;66.50;35.80;;;;;;;5.35;91.81;99025.50;181973;1257;58336;-58
2024/02/08 09:18:15;;;;;;;49.40;29.20;;;;;;;5.50;93.89;99019.02;182250;1256;43663;-58
2024/02/08 09:22:19;;;;;;;16.50;10.70;;;;;;;5.70;93.82;99022.85;181827;1256;42974;-59
2024/02/08 09:26:24;;;;;;;13.00;7.50;;;;;;;5.88;92.06;99012.13;182201;1257;43723;-59
2024/02/08 09:30:40;;;;;;;16.40;7.80;;;;;;;6.11;91.41;98997.40;182283;1256;43708;-60
2024/02/08 09:34:47;;;;;;;10.20;5.40;;;;;;;6.11;88.43;98989.63;182035;1256;58071;-58
2024/02/08 09:38:51;;;;;;;15.50;8.60;;;;;;;6.21;89.49;98989.70;181994;1256;43656;-60
2024/02/08 09:42:57;;;;;;;16.00;7.90;;;;;;;6.29;88.36;98997.98;182218;1257;43120;-59
2024/02/08 09:47:04;;;;;;;7.10;4.40;;;;;;;6.36;88.06;98986.64;181873;1256;43571;-61
2024/02/08 09:51:23;;;;;;;13.80;6.20;;;;;;;6.41;87.26;98988.23;181691;1257;43060;-59
2024/02/08 09:55:32;;;;;;;11.00;6.90;;;;;;;6.55;87.07;98990.77;181824;1256;59725;-60
2024/02/08 09:59:58;;;;;;;11.80;5.00;;;;;;;6.58;86.02;98967.50;182212;1259;43180;-59
2024/02/08 10:04:16;;;;;;;16.00;7.00;;;;;;;6.75;85.92;98970.48;182085;1256;43726;-58
2024/02/08 10:08:38;;;;;;;8.20;5.20;;;;;;;6.77;83.40;98975.06;181871;1256;43575;-59
2024/02/08 10:17:18;;;;;;;12.40;7.90;;;;;;;6.70;85.33;98960.01;181844;1257;58517;-59
2024/02/08 10:21:25;;;;;;;17.40;8.20;;;;;;;6.61;84.64;98962.20;181800;1256;43093;-60
2024/02/08 10:29:51;;;;;;;10.20;5.80;;;;;;;6.51;85.53;98951.09;181964;1258;43748;-58
2024/02/08 10:34:08;;;;;;;16.50;6.30;;;;;;;6.53;86.34;98942.80;182229;1257;43618;-61
2024/02/08 10:38:55;;;;;;;12.60;5.70;;;;;;;6.45;86.22;98932.04;181852;1258;58058;-60
2024/02/08 10:43:16;;;;;;;13.50;8.00;;;;;;;6.46;87.38;98929.87;181975;1257;43905;-60
2024/02/08 10:47:21;;;;;;;10.50;7.10;;;;;;;6.57;87.21;98922.05;181851;1256;43013;-60
2024/02/08 10:51:43;;;;;;;13.10;7.20;;;;;;;6.63;86.35;98912.34;182156;1256;43512;-59
2024/02/08 10:55:56;;;;;;;13.50;5.70;;;;;;;6.70;84.77;98920.73;181847;1256;43085;-59
2024/02/08 10:59:59;;;;;;;12.70;6.20;;;;;;;6.67;83.73;98923.96;182164;1256;57896;-59
2024/02/08 11:04:17;;;;;;;16.60;7.60;;;;;;;6.70;84.70;98917.36;181823;1257;43875;-61
2024/02/08 11:08:32;;;;;;;9.60;6.60;;;;;;;6.78;84.56;98914.40;181947;1258;43662;-59
2024/02/08 11:12:39;;;;;;;17.80;9.60;;;;;;;6.79;83.19;98906.88;181890;1256;43672;-60
2024/02/08 11:16:51;;;;;;;18.70;10.10;;;;;;;6.90;83.77;98907.00;181782;1257;43676;-59
2024/02/08 11:21:05;;;;;;;12.80;7.60;;;;;;;6.90;83.61;98906.96;181818;1257;58577;-60
2024/02/08 11:25:33;;;;;;;13.20;8.20;;;;;;;6.95;83.21;98897.39;181860;1257;43726;-59
2024/02/08 11:29:46;;;;;;;9.20;6.40;;;;;;;7.07;83.31;98890.03;181859;1257;43001;-61
2024/02/08 11:33:53;;;;;;;16.60;6.00;;;;;;;7.21;83.18;98893.16;181670;1257;43053;-59
2024/02/08 11:38:21;;;;;;;;;;;;;;;7.35;82.86;98896.14;182216;1256;43840;-59
2024/02/08 11:42:32;;;;;;;13.00;6.80;;;;;;;7.37;83.37;98898.65;182065;1257;57647;-58
2024/02/08 11:46:45;;;;;;;57.60;22.70;;;;;;;7.52;83.19;98901.78;181620;1256;43916;-61
2024/02/08 11:50:50;;;;;;;11.20;7.50;;;;;;;7.55;81.24;98898.55;182011;1256;43321;-59
2024/02/08 11:55:05;;;;;;;12.10;5.80;;;;;;;7.54;81.33;98893.05;181877;1256;43582;-60
2024/02/08 11:59:14;;;;;;;28.60;5.40;;;;;;;7.59;81.97;98887.80;181906;1257;43089;-60
2024/02/08 12:03:18;;;;;;;25.40;13.00;;;;;;;7.64;81.45;98888.60;182078;1256;58032;-62
2024/02/08 12:07:27;;;;;;;18.20;10.70;;;;;;;7.62;82.20;98889.85;181899;1257;43105;-59
2024/02/08 12:11:32;;;;;;;20.90;10.40;;;;;;;7.56;80.10;98881.67;182018;1257;43735;-59
2024/02/08 12:15:36;;;;;;;9.90;7.20;;;;;;;7.36;80.72;98871.95;181798;1256;43082;-61
2024/02/08 12:19:40;;;;;;;17.00;7.60;;;;;;;7.31;81.82;98861.02;181904;1256;43474;-59
2024/02/08 12:23:53;;;;;;;14.20;6.50;;;;;;;7.39;82.32;98850.84;182066;1257;57333;-58
2024/02/08 12:28:13;;;;;;;14.00;6.80;;;;;;;7.38;82.66;98845.05;181888;1256;43747;-59
2024/02/08 12:32:17;;;;;;;10.90;7.10;;;;;;;7.39;81.23;98846.80;182238;1257;43994;-62
2024/02/08 12:36:23;;;;;;;17.50;6.60;;;;;;;7.46;80.63;98839.63;182156;1257;43693;-59
2024/02/08 12:40:32;;;;;;;12.50;6.80;;;;;;;7.50;80.99;98841.19;181759;1257;43192;-60
2024/02/08 12:44:36;;;;;;;17.80;10.30;;;;;;;7.48;81.58;98836.09;181950;1257;57585;-60
2024/02/08 12:48:40;;;;;;;14.10;7.90;;;;;;;7.44;81.41;98825.26;181943;1257;43288;-61
2024/02/08 12:52:44;;;;;;;15.70;8.10;;;;;;;7.45;80.48;98818.12;182211;1257;43657;-61
2024/02/08 12:57:07;;;;;;;14.40;8.70;;;;;;;7.59;82.01;98811.59;182051;1256;43023;-60
2024/02/08 13:01:14;;;;;;;13.80;7.20;;;;;;;7.70;80.27;98807.91;181760;1257;43707;-61
2024/02/08 13:05:18;;;;;;;9.70;6.60;;;;;;;7.62;80.34;98798.77;181874;1256;57978;-60
2024/02/08 13:09:26;;;;;;;17.50;7.90;;;;;;;7.66;81.00;98793.17;182005;1256;43409;-59
2024/02/08 13:13:31;;;;;;;25.00;9.50;;;;;;;7.56;81.96;98788.72;182024;1256;43126;-59
2024/02/08 13:17:56;;;;;;;12.40;6.30;;;;;;;7.55;82.38;98785.61;182027;1256;43436;-61
2024/02/08 13:22:00;;;;;;;8.70;6.10;;;;;;;7.49;82.50;98776.86;181715;1257;43362;-58
2024/02/08 13:26:06;;;;;;;13.40;7.90;;;;;;;7.50;82.93;98773.22;181801;1256;57958;-59
2024/02/08 13:30:22;;;;;;;15.50;7.90;;;;;;;7.54;82.04;98772.13;181877;1257;43111;-59
2024/02/08 13:34:25;;;;;;;11.90;7.10;;;;;;;7.58;82.03;98778.65;182033;1256;42995;-61
2024/02/08 13:38:51;;;;;;;10.30;5.50;;;;;;;7.66;81.55;98778.66;181981;1257;43127;-59
2024/02/08 13:42:56;;;;;;;22.20;12.70;;;;;;;7.70;81.26;98774.55;181997;1256;42994;-59
2024/02/08 13:47:00;;;;;;;12.10;6.70;;;;;;;7.81;81.73;98774.77;182140;1256;58222;-61
2024/02/08 13:51:33;;;;;;;15.70;8.40;;;;;;;7.60;82.25;98776.02;182083;1255;43717;-59
2024/02/08 13:55:37;;;;;;;11.10;7.10;;;;;;;7.59;81.69;98775.56;182001;1256;44809;-59
2024/02/08 14:00:08;;;;;;;12.20;8.10;;;;;;;7.55;83.88;98773.98;181640;1256;43764;-60
2024/02/08 14:04:20;;;;;;;16.40;7.00;;;;;;;7.59;82.88;98770.31;181949;1255;43744;-59
2024/02/08 14:08:46;;;;;;;10.80;6.40;;;;;;;7.57;82.28;98751.06;181878;1256;58993;-60
2024/02/08 14:13:06;;;;;;;11.90;7.30;;;;;;;7.58;82.37;98740.55;181858;1256;43110;-61
2024/02/08 14:17:20;;;;;;;13.20;6.30;;;;;;;7.66;83.25;98738.63;181772;1255;43074;-61
2024/02/08 14:21:25;;;;;;;14.30;6.60;;;;;;;7.67;82.38;98738.38;182165;1256;43816;-59
2024/02/08 14:25:48;;;;;;;;;;;;;;;7.65;83.03;98744.56;181798;1257;43696;-59
2024/02/08 14:29:57;;;;;;;26.20;12.70;;;;;;;7.53;83.03;98736.62;182003;1257;58344;-59
2024/02/08 14:34:02;;;;;;;14.10;7.30;;;;;;;7.47;82.79;98735.94;182011;1255;43592;-58
2024/02/08 14:38:07;;;;;;;22.60;9.80;;;;;;;7.37;83.75;98755.96;181657;1255;43769;-59
2024/02/08 14:42:17;;;;;;;12.00;7.10;;;;;;;7.31;84.94;98752.27;182015;1255;43805;-59
2024/02/08 14:46:25;;;;;;;16.70;11.40;;;;;;;7.29;84.65;98740.25;181855;1255;43017;-60
2024/02/08 14:54:58;;;;;;;42.10;23.40;;;;;;;7.32;85.02;98726.30;181775;1256;43518;-61
2024/02/08 14:59:13;;;;;;;21.80;13.80;;;;;;;7.28;84.82;98726.41;181690;1256;43861;-61
2024/02/08 15:03:27;;;;;;;31.50;15.90;;;;;;;7.23;86.06;98736.92;182025;1256;43524;-62
2024/02/08 15:08:08;;;;;;;47.40;27.80;;;;;;;7.18;85.53;98738.27;181896;1257;43640;-59
2024/02/08 15:12:27;;;;;;;26.10;14.80;;;;;;;7.15;85.60;98737.84;181925;1256;57422;-60
2024/02/08 15:16:31;;;;;;;19.10;9.10;;;;;;;7.13;86.06;98734.33;181758;1255;43765;-58
2024/02/08 15:21:06;;;;;;;11.20;7.10;;;;;;;7.09;86.41;98727.80;181826;1256;43009;-60
2024/02/08 15:25:09;;;;;;;15.30;7.20;;;;;;;7.11;87.27;98725.70;182022;1255;43693;-59
2024/02/08 15:43:29;;;;;;;15.30;7.10;;;;;;;6.92;88.73;98704.85;181902;1256;42990;-58
2024/02/08 15:47:34;;;;;;;23.30;15.60;;;;;;;6.92;89.77;98702.77;181899;1255;43384;-61
2024/02/08 15:51:38;;;;;;;15.90;8.30;;;;;;;6.93;89.94;98699.32;182048;1255;43132;-59
2024/02/08 15:55:42;;;;;;;11.80;6.70;;;;;;;6.92;90.98;98688.63;182021;1256;57877;-59
2024/02/08 15:59:46;;;;;;;13.30;8.00;;;;;;;6.86;91.82;98687.02;182248;1256;43837;-58
2024/02/08 16:03:55;;;;;;;9.20;7.30;;;;;;;6.85;92.03;98680.67;181943;1255;43591;-58
2024/02/08 16:13:14;;;;;;;15.70;9.40;;;;;;;6.82;92.08;98675.85;181842;1257;43425;-58
2024/02/08 16:17:36;;;;;;;16.40;8.20;;;;;;;6.82;91.81;98669.83;181865;1256;59228;-58
2024/02/08 16:21:43;;;;;;;14.10;8.50;;;;;;;6.81;91.80;98674.85;182047;1255;43575;-58
2024/02/08 16:26:05;;;;;;;11.00;7.20;;;;;;;6.81;92.39;98668.00;181871;1256;43789;-59
2024/02/08 16:30:28;;;;;;;17.00;12.40;;;;;;;6.81;92.97;98667.14;182093;1256;43058;-59
2024/02/08 16:34:47;;;;;;;16.10;9.60;;;;;;;6.72;93.40;98660.14;182002;1254;43502;-58
2024/02/08 16:38:56;;;;;;;18.50;9.60;;;;;;;6.66;93.31;98659.45;182020;1255;58112;-59
2024/02/08 16:43:19;;;;;;;21.00;13.70;;;;;;;6.61;93.16;98658.34;181994;1255;43877;-58
2024/02/08 16:47:41;;;;;;;34.50;20.70;;;;;;;6.56;93.20;98659.66;182054;1255;43429;-58
2024/02/08 16:51:45;;;;;;;49.00;23.70;;;;;;;6.55;93.31;98655.17;182092;1255;44109;-58
2024/02/08 16:55:56;;;;;;;25.00;16.20;;;;;;;6.53;93.29;98656.07;181952;1254;43030;-59
2024/02/08 17:00:36;;;;;;;24.80;12.50;;;;;;;6.57;94.15;98654.79;181916;1256;58296;-59
2024/02/08 17:04:39;;;;;;;32.50;15.70;;;;;;;6.61;95.11;98651.84;182107;1254;43092;-59
2024/02/08 17:13:16;;;;;;;28.80;17.30;;;;;;;6.60;95.04;98644.39;181831;1256;43247;-59
2024/02/08 17:17:24;;;;;;;36.00;20.20;;;;;;;6.59;94.69;98645.44;182178;1255;43722;-59
2024/02/08 17:21:44;;;;;;;39.80;21.50;;;;;;;6.64;94.75;98639.39;182190;1255;58147;-58
2024/02/08 17:26:15;;;;;;;50.20;27.30;;;;;;;6.68;95.64;98640.06;182069;1257;43734;-58
2024/02/08 17:30:25;;;;;;;51.00;30.00;;;;;;;6.68;96.15;98633.73;181502;1260;43114;-59
2024/02/08 17:34:39;;;;;;;51.00;29.00;;;;;;;6.63;97.19;98627.53;181325;1259;43080;-60
2024/02/08 17:38:54;;;;;;;44.20;26.00;;;;;;;6.65;97.77;98621.70;181596;1259;43358;-61
2024/02/08 17:43:07;;;;;;;44.80;24.70;;;;;;;6.67;98.38;98619.95;181530;1260;59547;-59
2024/02/08 17:47:13;;;;;;;45.90;23.30;;;;;;;6.66;98.88;98616.30;181411;1262;43518;-62
2024/02/08 17:51:37;;;;;;;26.50;17.50;;;;;;;6.61;98.23;98614.85;181548;1259;43034;-60
2024/02/08 17:55:41;;;;;;;26.90;15.30;;;;;;;6.56;98.28;98606.32;181433;1260;43227;-61
2024/02/08 18:00:48;;;;;;;26.60;14.40;;;;;;;6.50;99.16;98604.38;181425;1259;43755;-60
2024/02/08 18:04:51;;;;;;;21.20;12.70;;;;;;;6.44;100.00;98597.91;181323;1262;59471;-60
2024/02/08 18:09:03;;;;;;;20.80;14.50;;;;;;;6.39;100.00;98598.64;181424;1259;43945;-60
2024/02/08 18:13:09;;;;;;;25.50;14.90;;;;;;;6.29;100.00;98586.77;181380;1260;43039;-60
2024/02/08 18:17:24;;;;;;;38.00;17.50;;;;;;;6.16;100.00;98583.50;181458;1260;43688;-61
2024/02/08 18:21:28;;;;;;;26.20;13.80;;;;;;;6.08;100.00;98576.61;181422;1260;43707;-61
2024/02/08 18:25:32;;;;;;;23.30;16.00;;;;;;;6.03;100.00;98580.42;181400;1260;57875;-61
2024/02/08 18:29:35;;;;;;;30.30;16.00;;;;;;;6.03;100.00;98572.52;181285;1260;43675;-61
2024/02/08 18:33:38;;;;;;;32.10;17.10;;;;;;;6.00;100.00;98574.17;181362;1262;43667;-60
2024/02/08 18:37:46;;;;;;;30.60;17.80;;;;;;;5.98;100.00;98571.38;181418;1259;43104;-61
2024/02/08 18:41:50;;;;;;;23.10;14.50;;;;;;;5.96;100.00;98570.45;181349;1260;43697;-60
2024/02/08 18:45:55;;;;;;;27.10;17.70;;;;;;;5.91;100.00;98565.85;181354;1259;56896;-60
2024/02/08 18:50:06;;;;;;;21.90;14.20;;;;;;;5.83;100.00;98565.59;181287;1260;43110;-61
2024/02/08 18:54:11;;;;;;;30.40;16.80;;;;;;;5.79;100.00;98560.57;181323;1259;43648;-60
2024/02/08 18:58:17;;;;;;;35.70;17.80;;;;;;;5.69;100.00;98551.02;181480;1259;43387;-62
2024/02/08 19:02:30;;;;;;;31.50;16.60;;;;;;;5.66;100.00;98559.80;181514;1259;43723;-61
2024/02/08 19:06:39;;;;;;;26.10;17.20;;;;;;;5.60;100.00;98555.16;181503;1259;58191;-61
2024/02/08 19:10:57;;;;;;;31.40;18.60;;;;;;;5.61;100.00;98556.35;181311;1259;43827;-62
2024/02/08 19:15:06;;;;;;;36.20;20.20;;;;;;;5.57;100.00;98547.16;181366;1260;43031;-62
2024/02/08 19:19:11;;;;;;;31.40;19.10;;;;;;;5.51;100.00;98548.27;181299;1259;43695;-61
2024/02/08 19:23:14;;;;;;;24.10;17.20;;;;;;;5.46;100.00;98548.72;181491;1259;43681;-61
2024/02/08 19:27:18;;;;;;;24.40;13.70;;;;;;;5.41;100.00;98555.08;181295;1259;58654;-61
2024/02/08 19:31:26;;;;;;;12.80;8.50;;;;;;;5.31;100.00;98554.20;181360;1259;43200;-60
2024/02/08 19:35:32;;;;;;;18.90;11.20;;;;;;;5.20;100.00;98549.90;181327;1260;43611;-60
2024/02/08 19:39:36;;;;;;;19.90;12.50;;;;;;;5.10;100.00;98551.05;181498;1259;43139;-59
2024/02/08 19:43:41;;;;;;;21.70;12.50;;;;;;;5.03;100.00;98555.08;181422;1259;42965;-60
2024/02/08 19:47:46;;;;;;;16.20;10.30;;;;;;;4.97;100.00;98551.85;181465;1260;57072;-60
2024/02/08 19:51:49;;;;;;;17.30;12.20;;;;;;;4.90;100.00;98553.98;181404;1259;43514;-60
2024/02/08 19:55:53;;;;;;;19.10;11.70;;;;;;;4.86;100.00;98544.70;181429;1262;43824;-60
2024/02/08 19:59:56;;;;;;;19.70;12.00;;;;;;;4.81;100.00;98539.48;181343;1260;43701;-60
2024/02/08 20:04:13;;;;;;;18.20;13.10;;;;;;;4.80;100.00;98536.23;181480;1260;43586;-61
2024/02/08 20:08:17;;;;;;;21.00;13.30;;;;;;;4.80;100.00;98534.54;181341;1259;58214;-60
2024/02/08 20:12:22;;;;;;;29.10;13.30;;;;;;;4.80;100.00;98525.02;181492;1259;43367;-62
2024/02/08 20:16:31;;;;;;;22.80;14.40;;;;;;;4.82;100.00;98529.63;181365;1260;43745;-62
2024/02/08 20:20:36;;;;;;;20.50;12.70;;;;;;;4.79;100.00;98530.75;181334;1260;44050;-61
2024/02/08 20:24:43;;;;;;;18.10;11.80;;;;;;;4.73;100.00;98530.36;181326;1260;43133;-62
2024/02/08 20:28:48;;;;;;;25.10;15.70;;;;;;;4.75;100.00;98535.11;181382;1260;59794;-61
2024/02/08 20:33:41;;;;;;;23.00;15.90;;;;;;;4.76;100.00;98538.20;181473;1260;44021;-61
2024/02/08 20:37:46;;;;;;;18.80;13.90;;;;;;;4.75;100.00;98533.23;181401;1260;42967;-61
2024/02/08 20:42:40;;;;;;;22.70;14.80;;;;;;;4.77;100.00;98537.26;181458;1259;43626;-63
2024/02/08 20:46:48;;;;;;;25.70;15.00;;;;;;;4.81;100.00;98546.04;181457;1260;43724;-61
2024/02/08 20:51:07;;;;;;;18.60;14.00;;;;;;;4.80;100.00;98533.66;181437;1261;58214;-62
2024/02/08 20:55:17;;;;;;;22.00;14.20;;;;;;;4.78;100.00;98538.04;181527;1260;43055;-61
2024/02/08 20:59:20;;;;;;;22.70;15.40;;;;;;;4.76;100.00;98527.13;181442;1260;43338;-62
2024/02/08 21:03:25;;;;;;;20.70;14.50;;;;;;;4.75;100.00;98528.08;181424;1261;43763;-61
2024/02/08 21:07:30;;;;;;;17.00;12.20;;;;;;;4.68;100.00;98527.23;181452;1260;43688;-61
2024/02/08 21:11:59;;;;;;;21.20;11.90;;;;;;;4.63;100.00;98525.08;181329;1259;58185;-61
2024/02/08 21:16:04;;;;;;;20.80;13.60;;;;;;;4.59;100.00;98528.94;181613;1259;43777;-61
2024/02/08 21:20:08;;;;;;;18.20;12.10;;;;;;;4.50;100.00;98518.10;181375;1259;43696;-60
2024/02/08 21:24:12;;;;;;;21.10;16.00;;;;;;;4.46;100.00;98516.14;181429;1261;44171;-60
2024/02/08 21:28:19;;;;;;;20.90;13.70;;;;;;;4.35;100.00;98514.42;181167;1265;43010;-60
2024/02/08 21:32:23;;;;;;;23.90;16.10;;;;;;;4.36;100.00;98519.09;181145;1266;58464;-60
2024/02/08 21:36:26;;;;;;;21.40;15.60;;;;;;;4.29;100.00;98507.86;181128;1265;43818;-60
2024/02/08 21:40:29;;;;;;;29.00;17.10;;;;;;;4.24;100.00;98515.52;181097;1265;43726;-61
2024/02/08 21:44:38;;;;;;;25.30;18.90;;;;;;;4.16;100.00;98500.90;181070;1265;43618;-59